sensor_id;sensor_type;location;lat;lon;timestamp;P1;durP1;ratioP1;P2;durP2;ratioP2
8958;SDS011;4514;49.476;8.484;2023-11-21T00:02:36;7.00;;;2.22;;
8958;SDS011;4514;49.476;8.484;2023-11-21T00:05:25;5.60;;;2.22;;
8958;SDS011;4514;49.476;8.484;2023-11-21T00:08:12;9.10;;;3.35;;
8958;SDS011;4514;49.476;8.484;2023-11-21T00:10:58;8.88;;;3.90;;
8958;SDS011;4514;49.476;8.484;2023-11-21T00:13:45;6.88;;;3.28;;
8958;SDS011;4514;49.476;8.484;2023-11-21T00:16:31;7.45;;;3.22;;
8958;SDS011;4514;49.476;8.484;2023-11-21T00:19:17;6.43;;;3.00;;
8958;SDS011;4514;49.476;8.484;2023-11-21T00:22:03;5.85;;;2.55;;
8958;SDS011;4514;49.476;8.484;2023-11-21T00:24:51;4.75;;;2.30;;
8958;SDS011;4514;49.476;8.484;2023-11-21T00:27:37;6.97;;;2.53;;
8958;SDS011;4514;49.476;8.484;2023-11-21T00:30:23;6.05;;;2.55;;
8958;SDS011;4514;49.476;8.484;2023-11-21T00:33:10;5.30;;;2.67;;
8958;SDS011;4514;49.476;8.484;2023-11-21T00:35:57;6.88;;;2.80;;
8958;SDS011;4514;49.476;8.484;2023-11-21T00:38:43;5.18;;;2.60;;
8958;SDS011;4514;49.476;8.484;2023-11-21T00:41:33;4.70;;;2.40;;
8958;SDS011;4514;49.476;8.484;2023-11-21T00:44:19;5.68;;;2.08;;
8958;SDS011;4514;49.476;8.484;2023-11-21T00:47:05;7.47;;;2.20;;
8958;SDS011;4514;49.476;8.484;2023-11-21T00:49:52;5.78;;;2.50;;
8958;SDS011;4514;49.476;8.484;2023-11-21T00:52:39;5.57;;;2.08;;
8958;SDS011;4514;49.476;8.484;2023-11-21T00:55:29;5.60;;;2.30;;
8958;SDS011;4514;49.476;8.484;2023-11-21T00:58:15;4.50;;;2.17;;
8958;SDS011;4514;49.476;8.484;2023-11-21T01:01:04;4.90;;;2.03;;
8958;SDS011;4514;49.476;8.484;2023-11-21T01:03:50;5.13;;;2.38;;
8958;SDS011;4514;49.476;8.484;2023-11-21T01:06:39;5.32;;;2.00;;
8958;SDS011;4514;49.476;8.484;2023-11-21T01:09:26;3.90;;;2.15;;
8958;SDS011;4514;49.476;8.484;2023-11-21T01:12:13;7.85;;;2.38;;
8958;SDS011;4514;49.476;8.484;2023-11-21T01:15:03;7.20;;;2.17;;
8958;SDS011;4514;49.476;8.484;2023-11-21T01:17:54;3.80;;;2.10;;
8958;SDS011;4514;49.476;8.484;2023-11-21T01:20:39;4.88;;;1.80;;
8958;SDS011;4514;49.476;8.484;2023-11-21T01:23:26;7.60;;;2.75;;
8958;SDS011;4514;49.476;8.484;2023-11-21T01:26:12;5.78;;;2.25;;
8958;SDS011;4514;49.476;8.484;2023-11-21T01:28:59;5.57;;;2.35;;
8958;SDS011;4514;49.476;8.484;2023-11-21T01:31:50;4.80;;;2.58;;
8958;SDS011;4514;49.476;8.484;2023-11-21T01:34:37;5.15;;;2.28;;
8958;SDS011;4514;49.476;8.484;2023-11-21T01:37:23;5.45;;;2.42;;
8958;SDS011;4514;49.476;8.484;2023-11-21T01:40:11;7.38;;;2.60;;
8958;SDS011;4514;49.476;8.484;2023-11-21T01:42:59;4.82;;;2.28;;
8958;SDS011;4514;49.476;8.484;2023-11-21T01:45:45;4.10;;;2.33;;
8958;SDS011;4514;49.476;8.484;2023-11-21T01:48:33;4.40;;;1.98;;
8958;SDS011;4514;49.476;8.484;2023-11-21T01:51:20;4.75;;;2.05;;
8958;SDS011;4514;49.476;8.484;2023-11-21T01:54:09;5.00;;;1.95;;
8958;SDS011;4514;49.476;8.484;2023-11-21T01:56:57;5.25;;;2.03;;
8958;SDS011;4514;49.476;8.484;2023-11-21T01:59:51;5.75;;;2.00;;
8958;SDS011;4514;49.476;8.484;2023-11-21T02:02:44;5.13;;;2.17;;
8958;SDS011;4514;49.476;8.484;2023-11-21T02:05:35;4.95;;;2.10;;
8958;SDS011;4514;49.476;8.484;2023-11-21T02:08:24;4.55;;;1.83;;
8958;SDS011;4514;49.476;8.484;2023-11-21T02:11:12;3.97;;;2.10;;
8958;SDS011;4514;49.476;8.484;2023-11-21T02:14:04;7.03;;;2.28;;
8958;SDS011;4514;49.476;8.484;2023-11-21T02:16:54;7.53;;;2.10;;
8958;SDS011;4514;49.476;8.484;2023-11-21T02:19:45;7.07;;;2.55;;
8958;SDS011;4514;49.476;8.484;2023-11-21T02:22:33;6.72;;;2.35;;
8958;SDS011;4514;49.476;8.484;2023-11-21T02:25:22;4.57;;;2.15;;
8958;SDS011;4514;49.476;8.484;2023-11-21T02:28:08;7.45;;;2.42;;
8958;SDS011;4514;49.476;8.484;2023-11-21T02:30:54;5.13;;;2.40;;
8958;SDS011;4514;49.476;8.484;2023-11-21T02:33:46;6.03;;;2.58;;
8958;SDS011;4514;49.476;8.484;2023-11-21T02:36:33;5.60;;;2.28;;
8958;SDS011;4514;49.476;8.484;2023-11-21T02:39:20;4.35;;;2.30;;
8958;SDS011;4514;49.476;8.484;2023-11-21T02:42:09;3.70;;;2.10;;
8958;SDS011;4514;49.476;8.484;2023-11-21T02:44:55;6.50;;;2.22;;
8958;SDS011;4514;49.476;8.484;2023-11-21T02:47:42;5.93;;;2.30;;
8958;SDS011;4514;49.476;8.484;2023-11-21T02:50:31;4.13;;;2.08;;
8958;SDS011;4514;49.476;8.484;2023-11-21T02:53:18;4.85;;;2.17;;
8958;SDS011;4514;49.476;8.484;2023-11-21T02:56:04;4.63;;;2.03;;
8958;SDS011;4514;49.476;8.484;2023-11-21T02:58:52;4.40;;;2.00;;
8958;SDS011;4514;49.476;8.484;2023-11-21T03:01:43;4.72;;;2.20;;
8958;SDS011;4514;49.476;8.484;2023-11-21T03:04:30;4.38;;;2.47;;
8958;SDS011;4514;49.476;8.484;2023-11-21T03:07:18;3.92;;;2.13;;
8958;SDS011;4514;49.476;8.484;2023-11-21T03:10:04;5.97;;;2.40;;
8958;SDS011;4514;49.476;8.484;2023-11-21T03:12:52;4.28;;;2.60;;
8958;SDS011;4514;49.476;8.484;2023-11-21T03:15:38;7.10;;;2.72;;
8958;SDS011;4514;49.476;8.484;2023-11-21T03:18:24;4.25;;;2.10;;
8958;SDS011;4514;49.476;8.484;2023-11-21T03:21:10;4.85;;;2.20;;
8958;SDS011;4514;49.476;8.484;2023-11-21T03:23:56;3.83;;;2.05;;
8958;SDS011;4514;49.476;8.484;2023-11-21T03:26:44;5.85;;;2.50;;
8958;SDS011;4514;49.476;8.484;2023-11-21T03:29:30;4.70;;;2.28;;
8958;SDS011;4514;49.476;8.484;2023-11-21T03:32:17;4.78;;;2.25;;
8958;SDS011;4514;49.476;8.484;2023-11-21T03:35:03;5.57;;;2.25;;
8958;SDS011;4514;49.476;8.484;2023-11-21T03:37:51;4.38;;;2.10;;
8958;SDS011;4514;49.476;8.484;2023-11-21T03:40:40;4.07;;;2.20;;
8958;SDS011;4514;49.476;8.484;2023-11-21T03:43:43;5.15;;;1.75;;
8958;SDS011;4514;49.476;8.484;2023-11-21T03:46:31;4.75;;;2.00;;
8958;SDS011;4514;49.476;8.484;2023-11-21T03:49:17;3.35;;;2.22;;
8958;SDS011;4514;49.476;8.484;2023-11-21T03:52:06;5.35;;;2.10;;
8958;SDS011;4514;49.476;8.484;2023-11-21T03:54:55;4.45;;;1.88;;
8958;SDS011;4514;49.476;8.484;2023-11-21T03:57:42;3.85;;;1.85;;
8958;SDS011;4514;49.476;8.484;2023-11-21T04:00:28;4.53;;;1.70;;
8958;SDS011;4514;49.476;8.484;2023-11-21T04:03:14;5.30;;;1.80;;
8958;SDS011;4514;49.476;8.484;2023-11-21T04:06:00;4.88;;;1.95;;
8958;SDS011;4514;49.476;8.484;2023-11-21T04:08:47;4.88;;;2.17;;
8958;SDS011;4514;49.476;8.484;2023-11-21T04:11:33;5.20;;;1.92;;
8958;SDS011;4514;49.476;8.484;2023-11-21T04:14:19;3.38;;;1.90;;
8958;SDS011;4514;49.476;8.484;2023-11-21T04:17:07;6.20;;;1.90;;
8958;SDS011;4514;49.476;8.484;2023-11-21T04:19:59;3.47;;;2.03;;
8958;SDS011;4514;49.476;8.484;2023-11-21T04:22:45;3.83;;;1.80;;
8958;SDS011;4514;49.476;8.484;2023-11-21T04:25:31;4.28;;;2.20;;
8958;SDS011;4514;49.476;8.484;2023-11-21T04:28:18;4.97;;;2.00;;
8958;SDS011;4514;49.476;8.484;2023-11-21T04:31:07;4.03;;;1.98;;
8958;SDS011;4514;49.476;8.484;2023-11-21T04:33:54;4.13;;;2.10;;
8958;SDS011;4514;49.476;8.484;2023-11-21T04:36:40;2.25;;;1.90;;
8958;SDS011;4514;49.476;8.484;2023-11-21T04:39:27;6.20;;;2.20;;
8958;SDS011;4514;49.476;8.484;2023-11-21T04:42:16;2.47;;;2.05;;
8958;SDS011;4514;49.476;8.484;2023-11-21T04:47:37;2.35;;;1.80;;
8958;SDS011;4514;49.476;8.484;2023-11-21T04:50:24;2.95;;;1.80;;
8958;SDS011;4514;49.476;8.484;2023-11-21T04:53:14;4.80;;;2.13;;
8958;SDS011;4514;49.476;8.484;2023-11-21T04:56:00;3.60;;;2.00;;
8958;SDS011;4514;49.476;8.484;2023-11-21T04:58:46;4.63;;;2.03;;
8958;SDS011;4514;49.476;8.484;2023-11-21T05:01:32;3.08;;;1.85;;
8958;SDS011;4514;49.476;8.484;2023-11-21T05:04:19;2.60;;;1.90;;
8958;SDS011;4514;49.476;8.484;2023-11-21T05:07:07;4.57;;;2.20;;
8958;SDS011;4514;49.476;8.484;2023-11-21T05:09:54;4.38;;;2.35;;
8958;SDS011;4514;49.476;8.484;2023-11-21T05:12:41;5.00;;;4.50;;
8958;SDS011;4514;49.476;8.484;2023-11-21T05:15:27;4.65;;;3.20;;
8958;SDS011;4514;49.476;8.484;2023-11-21T05:18:13;5.78;;;3.70;;
8958;SDS011;4514;49.476;8.484;2023-11-21T05:21:01;7.50;;;4.47;;
8958;SDS011;4514;49.476;8.484;2023-11-21T05:23:47;8.65;;;5.50;;
8958;SDS011;4514;49.476;8.484;2023-11-21T05:26:33;9.52;;;7.10;;
8958;SDS011;4514;49.476;8.484;2023-11-21T05:29:19;7.55;;;6.80;;
8958;SDS011;4514;49.476;8.484;2023-11-21T05:32:06;8.30;;;7.10;;
8958;SDS011;4514;49.476;8.484;2023-11-21T05:34:55;8.43;;;7.20;;
8958;SDS011;4514;49.476;8.484;2023-11-21T05:38:09;10.55;;;8.05;;
8958;SDS011;4514;49.476;8.484;2023-11-21T05:41:23;8.95;;;8.13;;
8958;SDS011;4514;49.476;8.484;2023-11-21T05:44:10;9.13;;;8.20;;
8958;SDS011;4514;49.476;8.484;2023-11-21T05:47:05;10.05;;;7.72;;
8958;SDS011;4514;49.476;8.484;2023-11-21T05:50:16;7.65;;;6.90;;
8958;SDS011;4514;49.476;8.484;2023-11-21T05:53:04;6.30;;;5.70;;
8958;SDS011;4514;49.476;8.484;2023-11-21T05:55:55;5.38;;;4.88;;
8958;SDS011;4514;49.476;8.484;2023-11-21T05:58:43;5.28;;;4.78;;
8958;SDS011;4514;49.476;8.484;2023-11-21T06:01:32;6.82;;;4.82;;
8958;SDS011;4514;49.476;8.484;2023-11-21T06:04:18;5.38;;;4.70;;
8958;SDS011;4514;49.476;8.484;2023-11-21T06:07:09;4.88;;;4.47;;
8958;SDS011;4514;49.476;8.484;2023-11-21T06:09:55;7.20;;;5.88;;
8958;SDS011;4514;49.476;8.484;2023-11-21T06:12:41;9.50;;;6.32;;
8958;SDS011;4514;49.476;8.484;2023-11-21T06:15:28;8.15;;;6.50;;
8958;SDS011;4514;49.476;8.484;2023-11-21T06:18:17;8.05;;;7.25;;
8958;SDS011;4514;49.476;8.484;2023-11-21T06:21:04;8.40;;;7.50;;
8958;SDS011;4514;49.476;8.484;2023-11-21T06:23:51;9.55;;;8.55;;
8958;SDS011;4514;49.476;8.484;2023-11-21T06:26:38;10.15;;;8.52;;
8958;SDS011;4514;49.476;8.484;2023-11-21T06:29:24;11.50;;;8.70;;
8958;SDS011;4514;49.476;8.484;2023-11-21T06:35:32;10.00;;;9.00;;
8958;SDS011;4514;49.476;8.484;2023-11-21T06:38:28;10.63;;;9.52;;
8958;SDS011;4514;49.476;8.484;2023-11-21T06:56:03;10.60;;;9.50;;
8958;SDS011;4514;49.476;8.484;2023-11-21T06:59:09;11.07;;;9.98;;
8958;SDS011;4514;49.476;8.484;2023-11-21T07:01:58;11.32;;;10.15;;
8958;SDS011;4514;49.476;8.484;2023-11-21T07:04:45;11.32;;;10.10;;
8958;SDS011;4514;49.476;8.484;2023-11-21T07:07:32;12.90;;;9.43;;
8958;SDS011;4514;49.476;8.484;2023-11-21T07:10:22;11.07;;;9.98;;
8958;SDS011;4514;49.476;8.484;2023-11-21T07:13:08;11.45;;;10.25;;
8958;SDS011;4514;49.476;8.484;2023-11-21T07:15:58;11.48;;;10.38;;
8958;SDS011;4514;49.476;8.484;2023-11-21T07:18:48;10.90;;;9.90;;
8958;SDS011;4514;49.476;8.484;2023-11-21T07:21:36;10.18;;;9.27;;
8958;SDS011;4514;49.476;8.484;2023-11-21T07:24:30;10.65;;;9.63;;
8958;SDS011;4514;49.476;8.484;2023-11-21T07:27:18;10.15;;;9.25;;
8958;SDS011;4514;49.476;8.484;2023-11-21T07:30:06;9.95;;;9.00;;
8958;SDS011;4514;49.476;8.484;2023-11-21T07:32:53;9.25;;;8.35;;
8958;SDS011;4514;49.476;8.484;2023-11-21T07:35:40;8.90;;;7.55;;
8958;SDS011;4514;49.476;8.484;2023-11-21T07:38:26;7.85;;;7.15;;
8958;SDS011;4514;49.476;8.484;2023-11-21T07:41:14;8.18;;;7.22;;
8958;SDS011;4514;49.476;8.484;2023-11-21T07:44:01;14.82;;;10.93;;
8958;SDS011;4514;49.476;8.484;2023-11-21T07:46:50;8.90;;;8.00;;
8958;SDS011;4514;49.476;8.484;2023-11-21T07:49:37;8.43;;;7.65;;
8958;SDS011;4514;49.476;8.484;2023-11-21T07:52:27;9.07;;;7.90;;
8958;SDS011;4514;49.476;8.484;2023-11-21T07:55:13;8.32;;;7.47;;
8958;SDS011;4514;49.476;8.484;2023-11-21T07:58:01;8.55;;;7.75;;
8958;SDS011;4514;49.476;8.484;2023-11-21T08:00:47;8.50;;;7.72;;
8958;SDS011;4514;49.476;8.484;2023-11-21T08:03:37;6.93;;;6.22;;
8958;SDS011;4514;49.476;8.484;2023-11-21T08:06:26;7.00;;;6.40;;
8958;SDS011;4514;49.476;8.484;2023-11-21T08:09:12;7.05;;;5.60;;
8958;SDS011;4514;49.476;8.484;2023-11-21T08:12:04;6.40;;;5.80;;
8958;SDS011;4514;49.476;8.484;2023-11-21T08:14:55;6.53;;;5.93;;
8958;SDS011;4514;49.476;8.484;2023-11-21T08:17:44;6.07;;;5.30;;
8958;SDS011;4514;49.476;8.484;2023-11-21T08:20:31;5.45;;;5.05;;
8958;SDS011;4514;49.476;8.484;2023-11-21T08:23:22;5.75;;;5.10;;
8958;SDS011;4514;49.476;8.484;2023-11-21T08:26:12;10.50;;;9.13;;
8958;SDS011;4514;49.476;8.484;2023-11-21T08:29:04;5.28;;;4.88;;
8958;SDS011;4514;49.476;8.484;2023-11-21T08:31:54;4.88;;;4.05;;
8958;SDS011;4514;49.476;8.484;2023-11-21T08:34:40;3.65;;;3.35;;
8958;SDS011;4514;49.476;8.484;2023-11-21T08:37:32;4.25;;;3.40;;
8958;SDS011;4514;49.476;8.484;2023-11-21T08:40:22;3.78;;;3.47;;
8958;SDS011;4514;49.476;8.484;2023-11-21T08:43:11;3.97;;;3.58;;
8958;SDS011;4514;49.476;8.484;2023-11-21T08:45:57;3.92;;;3.63;;
8958;SDS011;4514;49.476;8.484;2023-11-21T08:48:44;4.03;;;3.72;;
8958;SDS011;4514;49.476;8.484;2023-11-21T08:51:31;3.60;;;3.30;;
8958;SDS011;4514;49.476;8.484;2023-11-21T08:54:20;3.20;;;3.00;;
8958;SDS011;4514;49.476;8.484;2023-11-21T08:57:06;4.88;;;2.92;;
8958;SDS011;4514;49.476;8.484;2023-11-21T08:59:54;3.90;;;3.28;;
8958;SDS011;4514;49.476;8.484;2023-11-21T09:02:42;3.53;;;2.70;;
8958;SDS011;4514;49.476;8.484;2023-11-21T09:05:32;2.22;;;2.00;;
8958;SDS011;4514;49.476;8.484;2023-11-21T09:08:18;2.80;;;2.20;;
8958;SDS011;4514;49.476;8.484;2023-11-21T09:11:08;2.90;;;2.53;;
8958;SDS011;4514;49.476;8.484;2023-11-21T09:13:57;2.47;;;2.28;;
8958;SDS011;4514;49.476;8.484;2023-11-21T09:16:44;2.47;;;2.30;;
8958;SDS011;4514;49.476;8.484;2023-11-21T09:19:32;3.25;;;2.70;;
8958;SDS011;4514;49.476;8.484;2023-11-21T09:22:21;3.00;;;2.72;;
8958;SDS011;4514;49.476;8.484;2023-11-21T09:25:12;3.30;;;3.10;;
8958;SDS011;4514;49.476;8.484;2023-11-21T09:28:00;3.67;;;3.05;;
8958;SDS011;4514;49.476;8.484;2023-11-21T09:30:45;3.95;;;3.60;;
8958;SDS011;4514;49.476;8.484;2023-11-21T09:33:34;4.50;;;4.10;;
8958;SDS011;4514;49.476;8.484;2023-11-21T09:36:20;4.60;;;4.20;;
8958;SDS011;4514;49.476;8.484;2023-11-21T09:39:12;5.50;;;5.00;;
8958;SDS011;4514;49.476;8.484;2023-11-21T09:45:14;6.40;;;5.80;;
8958;SDS011;4514;49.476;8.484;2023-11-21T09:48:05;6.72;;;6.13;;
8958;SDS011;4514;49.476;8.484;2023-11-21T09:50:53;7.32;;;6.60;;
8958;SDS011;4514;49.476;8.484;2023-11-21T09:53:40;9.30;;;8.40;;
8958;SDS011;4514;49.476;8.484;2023-11-21T09:56:29;9.50;;;8.60;;
8958;SDS011;4514;49.476;8.484;2023-11-21T09:59:18;10.00;;;8.65;;
8958;SDS011;4514;49.476;8.484;2023-11-21T10:02:07;8.90;;;7.97;;
8958;SDS011;4514;49.476;8.484;2023-11-21T10:04:59;10.20;;;9.20;;
8958;SDS011;4514;49.476;8.484;2023-11-21T10:07:49;9.60;;;8.70;;
8958;SDS011;4514;49.476;8.484;2023-11-21T10:13:54;11.25;;;10.05;;
8958;SDS011;4514;49.476;8.484;2023-11-21T10:16:44;12.02;;;10.35;;
8958;SDS011;4514;49.476;8.484;2023-11-21T10:19:33;11.90;;;10.60;;
8958;SDS011;4514;49.476;8.484;2023-11-21T10:22:30;12.60;;;11.30;;
8958;SDS011;4514;49.476;8.484;2023-11-21T10:25:22;12.13;;;10.93;;
8958;SDS011;4514;49.476;8.484;2023-11-21T10:28:09;14.63;;;10.75;;
8958;SDS011;4514;49.476;8.484;2023-11-21T10:31:15;14.63;;;11.77;;
8958;SDS011;4514;49.476;8.484;2023-11-21T10:34:15;14.80;;;11.50;;
8958;SDS011;4514;49.476;8.484;2023-11-21T10:37:12;13.63;;;11.43;;
8958;SDS011;4514;49.476;8.484;2023-11-21T10:40:13;13.27;;;11.52;;
8958;SDS011;4514;49.476;8.484;2023-11-21T10:43:08;12.43;;;11.23;;
8958;SDS011;4514;49.476;8.484;2023-11-21T10:46:03;15.85;;;12.73;;
8958;SDS011;4514;49.476;8.484;2023-11-21T10:49:02;13.73;;;10.40;;
8958;SDS011;4514;49.476;8.484;2023-11-21T10:51:49;12.35;;;11.05;;
8958;SDS011;4514;49.476;8.484;2023-11-21T10:54:43;13.65;;;12.13;;
8958;SDS011;4514;49.476;8.484;2023-11-21T10:57:34;13.40;;;10.02;;
8958;SDS011;4514;49.476;8.484;2023-11-21T11:00:21;10.35;;;9.30;;
8958;SDS011;4514;49.476;8.484;2023-11-21T11:03:21;10.13;;;8.57;;
8958;SDS011;4514;49.476;8.484;2023-11-21T11:06:09;8.07;;;7.25;;
8958;SDS011;4514;49.476;8.484;2023-11-21T11:08:59;10.38;;;7.72;;
8958;SDS011;4514;49.476;8.484;2023-11-21T11:11:58;7.38;;;6.68;;
8958;SDS011;4514;49.476;8.484;2023-11-21T11:14:59;7.53;;;6.82;;
8958;SDS011;4514;49.476;8.484;2023-11-21T11:20:32;8.93;;;7.20;;
8958;SDS011;4514;49.476;8.484;2023-11-21T11:37:18;9.82;;;7.05;;
8958;SDS011;4514;49.476;8.484;2023-11-21T11:40:00;7.60;;;6.32;;
8958;SDS011;4514;49.476;8.484;2023-11-21T11:42:57;6.78;;;6.13;;
8958;SDS011;4514;49.476;8.484;2023-11-21T11:45:45;6.97;;;6.28;;
8958;SDS011;4514;49.476;8.484;2023-11-21T11:48:41;7.20;;;6.53;;
8958;SDS011;4514;49.476;8.484;2023-11-21T11:51:30;7.40;;;6.50;;
8958;SDS011;4514;49.476;8.484;2023-11-21T11:54:34;9.70;;;6.95;;
8958;SDS011;4514;49.476;8.484;2023-11-21T11:57:25;8.23;;;6.78;;
8958;SDS011;4514;49.476;8.484;2023-11-21T12:00:15;7.57;;;6.45;;
8958;SDS011;4514;49.476;8.484;2023-11-21T12:03:08;8.07;;;6.22;;
8958;SDS011;4514;49.476;8.484;2023-11-21T12:05:54;11.20;;;10.02;;
8958;SDS011;4514;49.476;8.484;2023-11-21T12:08:43;9.55;;;6.95;;
8958;SDS011;4514;49.476;8.484;2023-11-21T12:11:33;10.38;;;9.27;;
8958;SDS011;4514;49.476;8.484;2023-11-21T12:14:26;10.43;;;6.93;;
8958;SDS011;4514;49.476;8.484;2023-11-21T12:17:12;11.10;;;9.13;;
8958;SDS011;4514;49.476;8.484;2023-11-21T12:20:02;13.25;;;11.20;;
8958;SDS011;4514;49.476;8.484;2023-11-21T12:22:53;13.75;;;11.50;;
8958;SDS011;4514;49.476;8.484;2023-11-21T12:25:41;13.95;;;11.50;;
8958;SDS011;4514;49.476;8.484;2023-11-21T12:28:31;13.15;;;11.23;;
8958;SDS011;4514;49.476;8.484;2023-11-21T12:31:50;12.52;;;10.10;;
8958;SDS011;4514;49.476;8.484;2023-11-21T12:34:39;10.40;;;8.40;;
8958;SDS011;4514;49.476;8.484;2023-11-21T12:37:30;7.90;;;7.10;;
8958;SDS011;4514;49.476;8.484;2023-11-21T12:40:16;11.18;;;9.02;;
8958;SDS011;4514;49.476;8.484;2023-11-21T12:43:10;9.05;;;6.55;;
8958;SDS011;4514;49.476;8.484;2023-11-21T12:46:07;8.65;;;6.80;;
8958;SDS011;4514;49.476;8.484;2023-11-21T12:48:57;6.30;;;4.85;;
8958;SDS011;4514;49.476;8.484;2023-11-21T12:51:45;7.15;;;6.18;;
8958;SDS011;4514;49.476;8.484;2023-11-21T12:54:36;4.38;;;3.55;;
8958;SDS011;4514;49.476;8.484;2023-11-21T12:57:28;4.95;;;3.58;;
8958;SDS011;4514;49.476;8.484;2023-11-21T13:00:17;6.80;;;5.03;;
8958;SDS011;4514;49.476;8.484;2023-11-21T13:03:16;6.18;;;5.10;;
8958;SDS011;4514;49.476;8.484;2023-11-21T13:06:14;6.38;;;4.65;;
8958;SDS011;4514;49.476;8.484;2023-11-21T13:09:01;7.03;;;5.60;;
8958;SDS011;4514;49.476;8.484;2023-11-21T13:11:58;6.30;;;4.13;;
8958;SDS011;4514;49.476;8.484;2023-11-21T13:14:58;4.63;;;3.60;;
8958;SDS011;4514;49.476;8.484;2023-11-21T13:17:52;4.68;;;4.15;;
8958;SDS011;4514;49.476;8.484;2023-11-21T13:20:44;3.90;;;3.47;;
8958;SDS011;4514;49.476;8.484;2023-11-21T13:23:34;4.47;;;3.70;;
8958;SDS011;4514;49.476;8.484;2023-11-21T13:26:41;4.32;;;3.42;;
8958;SDS011;4514;49.476;8.484;2023-11-21T13:29:28;5.18;;;3.50;;
8958;SDS011;4514;49.476;8.484;2023-11-21T13:32:15;5.85;;;3.88;;
8958;SDS011;4514;49.476;8.484;2023-11-21T13:35:02;7.35;;;4.30;;
8958;SDS011;4514;49.476;8.484;2023-11-21T13:37:53;7.78;;;4.68;;
8958;SDS011;4514;49.476;8.484;2023-11-21T13:40:41;4.97;;;4.18;;
8958;SDS011;4514;49.476;8.484;2023-11-21T13:47:17;5.55;;;3.60;;
8958;SDS011;4514;49.476;8.484;2023-11-21T13:50:05;9.95;;;7.10;;
8958;SDS011;4514;49.476;8.484;2023-11-21T13:53:03;5.93;;;5.32;;
8958;SDS011;4514;49.476;8.484;2023-11-21T13:56:10;11.68;;;4.90;;
8958;SDS011;4514;49.476;8.484;2023-11-21T13:59:00;4.47;;;3.85;;
8958;SDS011;4514;49.476;8.484;2023-11-21T14:02:01;6.10;;;3.40;;
8958;SDS011;4514;49.476;8.484;2023-11-21T14:05:03;6.57;;;3.70;;
8958;SDS011;4514;49.476;8.484;2023-11-21T14:07:56;6.07;;;4.07;;
8958;SDS011;4514;49.476;8.484;2023-11-21T14:10:57;5.30;;;3.90;;
8958;SDS011;4514;49.476;8.484;2023-11-21T14:17:36;7.13;;;4.43;;
8958;SDS011;4514;49.476;8.484;2023-11-21T14:20:26;6.18;;;4.47;;
8958;SDS011;4514;49.476;8.484;2023-11-21T14:23:17;7.13;;;4.53;;
8958;SDS011;4514;49.476;8.484;2023-11-21T14:28:43;8.63;;;5.05;;
8958;SDS011;4514;49.476;8.484;2023-11-21T14:31:52;11.27;;;5.47;;
8958;SDS011;4514;49.476;8.484;2023-11-21T14:34:55;7.95;;;5.70;;
8958;SDS011;4514;49.476;8.484;2023-11-21T14:37:44;11.07;;;6.40;;
8958;SDS011;4514;49.476;8.484;2023-11-21T14:40:33;11.15;;;6.28;;
8958;SDS011;4514;49.476;8.484;2023-11-21T14:43:28;8.25;;;6.35;;
8958;SDS011;4514;49.476;8.484;2023-11-21T14:46:15;8.57;;;6.10;;
8958;SDS011;4514;49.476;8.484;2023-11-21T14:49:07;11.05;;;6.25;;
8958;SDS011;4514;49.476;8.484;2023-11-21T14:52:04;9.27;;;5.93;;
8958;SDS011;4514;49.476;8.484;2023-11-21T14:55:08;11.77;;;5.88;;
8958;SDS011;4514;49.476;8.484;2023-11-21T14:58:28;8.20;;;5.80;;
8958;SDS011;4514;49.476;8.484;2023-11-21T15:01:17;8.52;;;4.57;;
8958;SDS011;4514;49.476;8.484;2023-11-21T15:05:00;7.63;;;5.05;;
8958;SDS011;4514;49.476;8.484;2023-11-21T15:08:00;7.32;;;4.60;;
8958;SDS011;4514;49.476;8.484;2023-11-21T15:11:23;8.35;;;4.60;;
8958;SDS011;4514;49.476;8.484;2023-11-21T15:14:21;8.77;;;5.63;;
8958;SDS011;4514;49.476;8.484;2023-11-21T15:17:12;9.77;;;4.90;;
8958;SDS011;4514;49.476;8.484;2023-11-21T15:20:20;8.52;;;4.53;;
8958;SDS011;4514;49.476;8.484;2023-11-21T15:23:14;6.75;;;4.57;;
8958;SDS011;4514;49.476;8.484;2023-11-21T15:26:04;6.90;;;4.47;;
8958;SDS011;4514;49.476;8.484;2023-11-21T15:32:17;7.25;;;4.72;;
8958;SDS011;4514;49.476;8.484;2023-11-21T15:35:16;5.25;;;4.40;;
8958;SDS011;4514;49.476;8.484;2023-11-21T15:38:08;10.35;;;5.43;;
8958;SDS011;4514;49.476;8.484;2023-11-21T15:41:01;7.38;;;5.10;;
8958;SDS011;4514;49.476;8.484;2023-11-21T15:43:48;7.30;;;4.47;;
8958;SDS011;4514;49.476;8.484;2023-11-21T15:46:40;7.40;;;4.97;;
8958;SDS011;4514;49.476;8.484;2023-11-21T15:53:15;7.57;;;5.25;;
8958;SDS011;4514;49.476;8.484;2023-11-21T15:56:03;7.93;;;4.88;;
8958;SDS011;4514;49.476;8.484;2023-11-21T15:59:13;8.73;;;4.97;;
8958;SDS011;4514;49.476;8.484;2023-11-21T16:02:37;8.80;;;5.38;;
8958;SDS011;4514;49.476;8.484;2023-11-21T16:05:25;8.63;;;5.32;;
8958;SDS011;4514;49.476;8.484;2023-11-21T16:08:27;7.97;;;5.53;;
8958;SDS011;4514;49.476;8.484;2023-11-21T16:11:30;6.82;;;5.38;;
8958;SDS011;4514;49.476;8.484;2023-11-21T16:14:28;8.02;;;5.30;;
8958;SDS011;4514;49.476;8.484;2023-11-21T16:17:44;8.65;;;5.30;;
8958;SDS011;4514;49.476;8.484;2023-11-21T16:20:36;8.52;;;5.57;;
8958;SDS011;4514;49.476;8.484;2023-11-21T16:23:35;10.23;;;6.13;;
8958;SDS011;4514;49.476;8.484;2023-11-21T16:26:27;8.45;;;5.90;;
8958;SDS011;4514;49.476;8.484;2023-11-21T16:29:33;8.60;;;6.32;;
8958;SDS011;4514;49.476;8.484;2023-11-21T16:32:39;9.32;;;6.22;;
8958;SDS011;4514;49.476;8.484;2023-11-21T16:35:32;10.93;;;6.13;;
8958;SDS011;4514;49.476;8.484;2023-11-21T16:38:18;9.30;;;6.22;;
8958;SDS011;4514;49.476;8.484;2023-11-21T16:41:06;7.03;;;5.65;;
8958;SDS011;4514;49.476;8.484;2023-11-21T16:44:06;10.02;;;6.40;;
8958;SDS011;4514;49.476;8.484;2023-11-21T16:47:22;9.80;;;5.88;;
8958;SDS011;4514;49.476;8.484;2023-11-21T16:53:21;7.97;;;6.00;;
8958;SDS011;4514;49.476;8.484;2023-11-21T16:56:24;9.75;;;5.75;;
8958;SDS011;4514;49.476;8.484;2023-11-21T16:59:21;10.75;;;6.10;;
8958;SDS011;4514;49.476;8.484;2023-11-21T17:02:10;8.15;;;6.15;;
8958;SDS011;4514;49.476;8.484;2023-11-21T17:05:02;7.75;;;6.43;;
8958;SDS011;4514;49.476;8.484;2023-11-21T17:07:50;13.52;;;6.47;;
8958;SDS011;4514;49.476;8.484;2023-11-21T17:10:51;9.05;;;7.07;;
8958;SDS011;4514;49.476;8.484;2023-11-21T17:13:43;10.55;;;6.47;;
8958;SDS011;4514;49.476;8.484;2023-11-21T17:16:38;10.10;;;6.50;;
8958;SDS011;4514;49.476;8.484;2023-11-21T17:19:28;9.88;;;7.57;;
8958;SDS011;4514;49.476;8.484;2023-11-21T17:22:24;10.30;;;7.20;;
8958;SDS011;4514;49.476;8.484;2023-11-21T17:25:12;8.93;;;7.97;;
8958;SDS011;4514;49.476;8.484;2023-11-21T17:28:01;9.77;;;7.30;;
8958;SDS011;4514;49.476;8.484;2023-11-21T17:30:51;8.25;;;7.13;;
8958;SDS011;4514;49.476;8.484;2023-11-21T17:33:37;8.98;;;7.28;;
8958;SDS011;4514;49.476;8.484;2023-11-21T17:36:31;10.80;;;8.60;;
8958;SDS011;4514;49.476;8.484;2023-11-21T17:39:26;7.97;;;6.97;;
8958;SDS011;4514;49.476;8.484;2023-11-21T17:42:17;9.90;;;7.78;;
8958;SDS011;4514;49.476;8.484;2023-11-21T17:45:06;11.60;;;7.82;;
8958;SDS011;4514;49.476;8.484;2023-11-21T17:48:02;10.70;;;7.72;;
8958;SDS011;4514;49.476;8.484;2023-11-21T17:50:56;10.18;;;8.15;;
8958;SDS011;4514;49.476;8.484;2023-11-21T17:53:46;10.73;;;6.95;;
8958;SDS011;4514;49.476;8.484;2023-11-21T17:56:39;7.80;;;5.70;;
8958;SDS011;4514;49.476;8.484;2023-11-21T17:59:25;8.65;;;6.40;;
8958;SDS011;4514;49.476;8.484;2023-11-21T18:02:23;9.85;;;6.20;;
8958;SDS011;4514;49.476;8.484;2023-11-21T18:05:16;11.50;;;6.88;;
8958;SDS011;4514;49.476;8.484;2023-11-21T18:08:06;8.10;;;7.05;;
8958;SDS011;4514;49.476;8.484;2023-11-21T18:10:58;7.40;;;6.38;;
8958;SDS011;4514;49.476;8.484;2023-11-21T18:13:56;8.82;;;7.53;;
8958;SDS011;4514;49.476;8.484;2023-11-21T18:16:43;9.95;;;7.93;;
8958;SDS011;4514;49.476;8.484;2023-11-21T18:19:47;13.70;;;11.93;;
8958;SDS011;4514;49.476;8.484;2023-11-21T18:23:08;15.35;;;10.43;;
8958;SDS011;4514;49.476;8.484;2023-11-21T18:26:04;14.05;;;8.52;;
8958;SDS011;4514;49.476;8.484;2023-11-21T18:28:51;10.98;;;8.05;;
8958;SDS011;4514;49.476;8.484;2023-11-21T18:31:44;10.98;;;7.90;;
8958;SDS011;4514;49.476;8.484;2023-11-21T18:34:40;11.07;;;8.40;;
8958;SDS011;4514;49.476;8.484;2023-11-21T18:37:52;11.57;;;8.65;;
8958;SDS011;4514;49.476;8.484;2023-11-21T18:40:46;15.77;;;8.85;;
8958;SDS011;4514;49.476;8.484;2023-11-21T18:43:51;11.90;;;8.80;;